createdAt,value
2023-04-25T00:01:14.286Z,4.13
2023-04-25T00:06:16.118Z,4.70
2023-04-25T00:11:17.799Z,5.10
2023-04-25T00:16:19.719Z,4.80
2023-04-25T00:21:22.143Z,4.90
2023-04-25T00:26:23.972Z,5.30
2023-04-25T00:31:25.954Z,5.23
2023-04-25T00:36:28.591Z,4.87
2023-04-25T00:41:31.230Z,5.10
2023-04-25T00:46:33.238Z,5.50
2023-04-25T00:51:35.303Z,5.20
2023-04-25T00:56:37.057Z,5.77
2023-04-25T01:01:40.132Z,5.33
2023-04-25T01:06:41.962Z,6.07
2023-04-25T01:11:43.744Z,5.70
2023-04-25T01:16:46.161Z,5.40
2023-04-25T01:21:48.234Z,6.00
2023-04-25T01:26:51.388Z,5.40
2023-04-25T01:31:53.923Z,5.50
2023-04-25T01:36:56.390Z,6.00
2023-04-25T01:41:59.790Z,5.53
2023-04-25T01:47:01.849Z,5.57
2023-04-25T01:52:03.678Z,5.40
2023-04-25T01:57:05.406Z,6.50
2023-04-25T02:02:07.446Z,5.57
2023-04-25T02:07:09.200Z,6.00
2023-04-25T02:12:11.432Z,6.03
2023-04-25T02:17:13.715Z,5.50
2023-04-25T02:22:15.687Z,5.50
2023-04-25T02:27:17.416Z,5.23
2023-04-25T02:32:19.129Z,5.47
2023-04-25T02:37:20.918Z,5.60
2023-04-25T02:42:22.760Z,5.67
2023-04-25T02:47:24.749Z,5.67
2023-04-25T02:52:26.729Z,5.10
2023-04-25T02:57:28.460Z,5.20
2023-04-25T03:02:30.303Z,5.10
2023-04-25T03:07:32.165Z,5.47
2023-04-25T03:12:33.908Z,5.30
2023-04-25T03:17:35.727Z,5.77
2023-04-25T03:22:37.681Z,5.63
2023-04-25T03:27:39.524Z,5.50
2023-04-25T03:32:41.244Z,5.60
2023-04-25T03:37:46.417Z,5.47
2023-04-25T03:42:48.141Z,5.00
2023-04-25T03:47:50.413Z,5.53
2023-04-25T03:52:52.291Z,5.43
2023-04-25T03:57:54.077Z,5.40
2023-04-25T04:02:56.084Z,5.50
2023-04-25T04:07:57.907Z,5.97
2023-04-25T04:12:59.740Z,6.07
2023-04-25T04:18:04.547Z,6.97
2023-04-25T04:23:06.641Z,6.47
2023-04-25T04:28:08.492Z,6.30
2023-04-25T04:33:10.435Z,7.40
2023-04-25T04:38:12.821Z,6.57
2023-04-25T04:43:18.072Z,6.43
2023-04-25T04:48:19.770Z,6.60
2023-04-25T04:53:21.454Z,8.97
2023-04-25T04:58:23.797Z,5.97
2023-04-25T05:03:25.763Z,5.97
2023-04-25T05:08:27.582Z,6.93
2023-04-25T05:13:29.377Z,6.73
2023-04-25T05:18:31.220Z,6.23
2023-04-25T05:23:34.110Z,6.50
2023-04-25T05:28:35.821Z,5.73
2023-04-25T05:33:37.513Z,5.30
2023-04-25T05:38:39.293Z,4.57
2023-04-25T05:43:46.092Z,3.83
2023-04-25T05:48:48.190Z,3.83
2023-04-25T05:53:50.085Z,3.90
2023-04-25T05:58:52.046Z,3.00
2023-04-25T06:03:54.222Z,3.50
2023-04-25T06:08:56.590Z,3.30
2023-04-25T06:13:58.455Z,2.87
2023-04-25T06:19:00.172Z,5.57
2023-04-25T06:24:01.886Z,3.50
2023-04-25T06:29:03.669Z,3.17
2023-04-25T06:34:05.421Z,3.83
2023-04-25T06:39:07.124Z,3.60
2023-04-25T06:44:08.859Z,3.63
2023-04-25T06:49:10.670Z,3.80
2023-04-25T06:54:12.418Z,8.20
2023-04-25T06:59:14.132Z,4.20
2023-04-25T07:04:16.016Z,3.33
2023-04-25T07:09:18.286Z,3.60
2023-04-25T07:14:19.985Z,3.97
2023-04-25T07:19:21.779Z,3.90
2023-04-25T07:24:23.516Z,3.70
2023-04-25T07:29:25.598Z,3.70
2023-04-25T07:34:27.394Z,4.10
2023-04-25T07:39:29.102Z,4.20
2023-04-25T07:44:39.283Z,4.23
2023-04-25T07:49:41.130Z,5.10
2023-04-25T07:54:42.843Z,5.07
2023-04-25T07:59:44.706Z,5.17
2023-04-25T08:04:46.603Z,4.03
2023-04-25T08:09:48.554Z,4.30
2023-04-25T08:14:50.270Z,4.83
2023-04-25T08:19:52.049Z,4.43
2023-04-25T08:24:53.914Z,3.70
2023-04-25T08:29:55.886Z,4.20
2023-04-25T08:34:57.856Z,4.40
2023-04-25T08:39:59.724Z,4.77
2023-04-25T08:45:04.373Z,6.40
2023-04-25T08:50:08.459Z,5.53
2023-04-25T08:55:10.685Z,5.80
2023-04-25T09:00:13.857Z,5.63
2023-04-25T09:05:15.955Z,4.80
2023-04-25T09:10:17.812Z,6.10
2023-04-25T09:15:20.950Z,5.90
2023-04-25T09:20:22.969Z,4.90
2023-04-25T09:25:26.528Z,4.20
2023-04-25T09:30:32.809Z,3.57
2023-04-25T09:35:46.101Z,3.40
2023-04-25T09:40:50.437Z,3.27
2023-04-25T09:45:55.229Z,3.23
2023-04-25T09:51:12.230Z,3.83
2023-04-25T09:56:14.393Z,3.03
2023-04-25T10:01:18.027Z,3.10
2023-04-25T10:06:22.527Z,3.40
2023-04-25T10:11:26.100Z,3.20
2023-04-25T10:16:29.233Z,3.10
2023-04-25T10:21:33.923Z,3.20
2023-04-25T10:26:35.755Z,3.10
2023-04-25T10:31:46.824Z,3.00
2023-04-25T10:36:55.812Z,3.00
2023-04-25T10:41:59.255Z,3.20
2023-04-25T10:47:02.570Z,3.10
2023-04-25T10:52:17.430Z,3.17
2023-04-25T10:57:40.130Z,3.40
2023-04-25T11:03:03.123Z,3.00
2023-04-25T11:08:15.122Z,3.53
2023-04-25T11:13:16.872Z,3.40
2023-04-25T11:18:19.723Z,3.87
2023-04-25T11:23:21.603Z,3.50
2023-04-25T11:28:24.728Z,3.80
2023-04-25T11:33:30.959Z,3.47
2023-04-25T11:38:32.746Z,3.60
2023-04-25T11:43:35.173Z,4.07
2023-04-25T11:48:43.889Z,3.87
2023-04-25T11:53:46.525Z,4.43
2023-04-25T11:59:02.449Z,4.47
2023-04-25T12:04:16.093Z,7.50
2023-04-25T12:09:33.203Z,6.13
2023-04-25T12:14:36.709Z,3.30
2023-04-25T12:19:42.185Z,3.87
2023-04-25T12:24:46.447Z,3.07
2023-04-25T12:29:57.637Z,2.47
2023-04-25T12:34:59.436Z,2.67
2023-04-25T12:40:01.526Z,2.60
2023-04-25T12:45:03.417Z,2.70
2023-04-25T12:50:05.567Z,2.87
2023-04-25T12:55:07.651Z,2.50
2023-04-25T13:00:15.690Z,2.30
2023-04-25T13:05:17.516Z,2.60
2023-04-25T13:10:19.347Z,2.40
2023-04-25T13:15:21.515Z,2.70
2023-04-25T13:20:23.477Z,2.90
2023-04-25T13:25:25.888Z,2.70
2023-04-25T13:30:27.635Z,2.30
2023-04-25T13:35:29.490Z,2.90
2023-04-25T13:40:31.320Z,3.00
2023-04-25T13:45:33.763Z,2.50
2023-04-25T13:50:36.259Z,2.40
2023-04-25T13:55:38.325Z,2.30
2023-04-25T14:00:40.960Z,2.03
2023-04-25T14:05:43.041Z,2.03
2023-04-25T14:10:44.764Z,2.10
2023-04-25T14:15:46.801Z,2.03
2023-04-25T14:20:48.863Z,2.30
2023-04-25T14:25:50.634Z,2.30
2023-04-25T14:30:52.460Z,2.70
2023-04-25T14:35:54.287Z,2.53
2023-04-25T14:40:56.219Z,2.30
2023-04-25T14:45:58.636Z,2.33
2023-04-25T14:51:03.825Z,2.80
2023-04-25T14:56:06.037Z,2.83
2023-04-25T15:01:08.155Z,2.60
2023-04-25T15:06:11.635Z,2.80
2023-04-25T15:11:13.442Z,3.20
2023-04-25T15:16:15.224Z,3.37
2023-04-25T15:21:17.046Z,3.17
2023-04-25T15:26:18.813Z,3.00
2023-04-25T15:31:20.787Z,3.50
2023-04-25T15:36:22.835Z,3.37
2023-04-25T15:41:26.260Z,3.43
2023-04-25T15:46:28.476Z,3.47
2023-04-25T15:51:30.680Z,3.60
2023-04-25T15:56:32.431Z,4.33
2023-04-25T16:01:34.870Z,5.57
2023-04-25T16:06:36.809Z,5.10
2023-04-25T16:11:38.502Z,3.70
2023-04-25T16:16:40.278Z,4.00
2023-04-25T16:21:42.872Z,3.73
2023-04-25T16:26:45.462Z,3.90
2023-04-25T16:31:47.621Z,3.70
2023-04-25T16:36:49.691Z,3.50
2023-04-25T16:41:52.048Z,3.50
2023-04-25T16:46:53.857Z,3.37
2023-04-25T16:51:55.727Z,3.80
2023-04-25T16:56:58.244Z,4.23
2023-04-25T17:02:00.067Z,3.30
2023-04-25T17:07:01.889Z,3.57
2023-04-25T17:12:04.535Z,3.90
2023-04-25T17:17:07.053Z,3.07
2023-04-25T17:22:09.279Z,4.53
2023-04-25T17:27:11.703Z,3.13
2023-04-25T17:32:15.061Z,3.43
2023-04-25T17:37:18.931Z,4.67
2023-04-25T17:42:20.709Z,5.07
2023-04-25T17:47:23.755Z,5.93
2023-04-25T17:52:25.890Z,9.53
2023-04-25T17:57:27.704Z,9.23
2023-04-25T18:02:29.640Z,7.57
2023-04-25T18:07:31.416Z,6.37
2023-04-25T18:12:34.026Z,4.30
2023-04-25T18:17:42.645Z,9.33
2023-04-25T18:22:45.584Z,7.37
2023-04-25T18:27:47.428Z,3.40
2023-04-25T18:32:50.210Z,3.00
2023-04-25T18:37:51.945Z,2.87
2023-04-25T18:42:53.937Z,2.40
2023-04-25T18:47:55.692Z,4.80
2023-04-25T18:52:57.618Z,15.63
2023-04-25T18:57:59.415Z,4.20
2023-04-25T19:03:04.656Z,2.80
2023-04-25T19:08:06.533Z,2.40
2023-04-25T19:13:08.554Z,4.60
2023-04-25T19:18:10.400Z,4.87
2023-04-25T19:23:12.683Z,7.57
2023-04-25T19:28:15.432Z,3.77
2023-04-25T19:33:17.611Z,3.60
2023-04-25T19:38:19.348Z,2.83
2023-04-25T19:43:21.090Z,3.80
2023-04-25T19:48:22.990Z,4.10
2023-04-25T19:53:24.750Z,4.47
2023-04-25T19:58:26.481Z,3.50
2023-04-25T20:03:28.404Z,3.23
2023-04-25T20:08:30.263Z,3.43
2023-04-25T20:13:32.591Z,3.80
2023-04-25T20:18:34.351Z,4.63
2023-04-25T20:23:36.036Z,4.33
2023-04-25T20:28:37.934Z,4.97
2023-04-25T20:33:39.776Z,4.03
2023-04-25T20:38:41.504Z,4.60
2023-04-25T20:43:43.313Z,6.47
2023-04-25T20:48:45.062Z,4.23
2023-04-25T20:53:46.732Z,4.57
2023-04-25T20:58:48.477Z,4.83
2023-04-25T21:03:51.783Z,4.43
2023-04-25T21:08:54.055Z,4.90
2023-04-25T21:13:56.098Z,5.20
2023-04-25T21:18:57.790Z,5.20
2023-04-25T21:23:59.532Z,6.10
2023-04-25T21:29:01.228Z,5.20
2023-04-25T21:34:03.321Z,5.40
2023-04-25T21:39:05.640Z,4.60
2023-04-25T21:44:07.411Z,4.47
2023-04-25T21:49:09.249Z,4.50
2023-04-25T21:54:11.061Z,5.57
2023-04-25T21:59:12.826Z,5.10
2023-04-25T22:04:14.887Z,5.20
2023-04-25T22:09:16.788Z,5.80
2023-04-25T22:14:18.937Z,5.60
2023-04-25T22:19:21.595Z,4.80
2023-04-25T22:24:24.565Z,5.07
2023-04-25T22:29:26.721Z,4.93
2023-04-25T22:34:28.508Z,5.30
2023-04-25T22:39:30.518Z,4.80
2023-04-25T22:44:33.640Z,5.57
2023-04-25T22:49:35.402Z,7.00
2023-04-25T22:54:39.421Z,5.30
2023-04-25T22:59:41.113Z,5.27
2023-04-25T23:04:43.116Z,5.23
2023-04-25T23:09:45.132Z,5.60
2023-04-25T23:14:51.938Z,5.63
2023-04-25T23:19:53.639Z,5.03
2023-04-25T23:24:55.899Z,5.80
2023-04-25T23:29:58.073Z,5.20
2023-04-25T23:34:59.962Z,4.43
2023-04-25T23:40:01.943Z,4.70
2023-04-25T23:45:05.117Z,5.20
2023-04-25T23:50:08.033Z,5.00
2023-04-25T23:55:10.637Z,4.40
